createdAt,value
2023-01-21T00:00:25.278Z,1.80
2023-01-21T00:03:20.314Z,1.80
2023-01-21T00:05:51.657Z,1.80
2023-01-21T00:08:23.245Z,1.80
2023-01-21T00:10:55.586Z,1.80
2023-01-21T00:13:28.448Z,1.80
2023-01-21T00:15:59.594Z,1.80
2023-01-21T00:18:34.260Z,1.80
2023-01-21T00:21:06.421Z,1.80
2023-01-21T00:23:37.978Z,1.80
2023-01-21T00:26:10.679Z,1.80
2023-01-21T00:28:44.049Z,1.80
2023-01-21T00:31:15.799Z,1.80
2023-01-21T00:33:50.592Z,1.80
2023-01-21T00:36:24.938Z,1.80
2023-01-21T00:38:56.423Z,1.80
2023-01-21T00:41:27.550Z,1.80
2023-01-21T00:43:59.189Z,1.80
2023-01-21T00:46:31.641Z,1.80
2023-01-21T00:49:06.582Z,1.80
2023-01-21T00:51:38.063Z,1.80
2023-01-21T00:54:10.331Z,1.80
2023-01-21T00:56:41.439Z,1.80
2023-01-21T00:59:13.084Z,1.80
2023-01-21T01:01:47.266Z,1.80
2023-01-21T01:04:23.273Z,1.80
2023-01-21T01:06:54.495Z,1.80
2023-01-21T01:09:26.033Z,1.80
2023-01-21T01:11:57.496Z,1.70
2023-01-21T01:14:29.984Z,1.70
2023-01-21T01:17:01.186Z,1.80
2023-01-21T01:19:36.198Z,1.70
2023-01-21T01:22:07.251Z,1.70
2023-01-21T01:24:39.146Z,1.70
2023-01-21T01:27:10.237Z,1.70
2023-01-21T01:29:41.659Z,1.70
2023-01-21T01:32:13.447Z,1.70
2023-01-21T01:34:47.771Z,1.70
2023-01-21T01:37:18.833Z,1.70
2023-01-21T01:39:50.066Z,1.70
2023-01-21T01:42:20.741Z,1.70
2023-01-21T01:45:01.860Z,1.70
2023-01-21T01:47:38.268Z,1.70
2023-01-21T01:50:16.082Z,1.70
2023-01-21T01:52:48.520Z,1.70
2023-01-21T01:55:20.223Z,1.70
2023-01-21T01:57:55.658Z,1.70
2023-01-21T02:00:28.014Z,1.70
2023-01-21T02:03:12.614Z,1.70
2023-01-21T02:05:49.948Z,1.70
2023-01-21T02:08:21.501Z,1.70
2023-01-21T02:10:56.345Z,1.70
2023-01-21T02:13:28.109Z,1.70
2023-01-21T02:16:16.698Z,1.70
2023-01-21T02:18:53.271Z,1.70
2023-01-21T02:21:46.758Z,1.70
2023-01-21T02:24:55.262Z,1.70
2023-01-21T02:27:50.123Z,1.70
2023-01-21T02:30:53.900Z,1.70
2023-01-21T02:33:54.156Z,1.70
2023-01-21T02:36:52.419Z,1.60
2023-01-21T02:39:32.498Z,1.60
2023-01-21T02:42:09.087Z,1.60
2023-01-21T02:44:43.551Z,1.60
2023-01-21T02:47:25.598Z,1.50
2023-01-21T02:50:02.732Z,1.50
2023-01-21T02:52:34.089Z,1.50
2023-01-21T02:55:05.825Z,1.40
2023-01-21T02:57:49.713Z,1.40
2023-01-21T03:00:26.409Z,1.40
2023-01-21T03:03:18.503Z,1.40
2023-01-21T03:06:13.149Z,1.30
2023-01-21T03:08:54.897Z,1.30
2023-01-21T03:11:26.555Z,1.30
2023-01-21T03:14:27.504Z,1.20
2023-01-21T03:17:04.727Z,1.20
2023-01-21T03:19:41.791Z,1.20
2023-01-21T03:22:18.412Z,1.20
2023-01-21T03:24:54.242Z,1.20
2023-01-21T03:27:29.894Z,1.20
2023-01-21T03:30:04.959Z,1.10
2023-01-21T03:32:38.801Z,1.10
2023-01-21T03:35:12.027Z,1.10
2023-01-21T03:37:53.113Z,1.10
2023-01-21T03:40:27.765Z,1.10
2023-01-21T03:42:59.316Z,1.10
2023-01-21T03:45:38.953Z,1.10
2023-01-21T03:48:17.269Z,1.10
2023-01-21T03:50:53.477Z,1.10
2023-01-21T03:53:27.483Z,1.10
2023-01-21T03:55:59.473Z,1.10
2023-01-21T03:58:31.452Z,1.10
2023-01-21T04:01:03.200Z,1.10
2023-01-21T04:03:34.516Z,1.10
2023-01-21T04:06:07.086Z,1.10
2023-01-21T04:08:41.156Z,1.10
2023-01-21T04:11:12.783Z,1.10
2023-01-21T04:13:44.389Z,1.00
2023-01-21T04:16:15.763Z,1.10
2023-01-21T04:18:47.866Z,1.00
2023-01-21T04:21:18.981Z,1.00
2023-01-21T04:23:52.843Z,1.00
2023-01-21T04:26:27.021Z,1.00
2023-01-21T04:28:58.327Z,1.00
2023-01-21T04:31:29.948Z,1.00
2023-01-21T04:34:01.472Z,1.00
2023-01-21T04:36:33.502Z,1.00
2023-01-21T04:39:07.647Z,1.00
2023-01-21T04:41:38.563Z,1.00
2023-01-21T04:44:10.066Z,1.00
2023-01-21T04:46:40.982Z,1.00
2023-01-21T04:49:13.034Z,1.00
2023-01-21T04:51:43.897Z,1.00
2023-01-21T04:54:19.131Z,1.00
2023-01-21T04:56:49.993Z,1.00
2023-01-21T04:59:21.926Z,1.00
2023-01-21T05:01:54.436Z,1.00
2023-01-21T05:04:25.784Z,1.00
2023-01-21T05:06:56.879Z,1.00
2023-01-21T05:09:30.910Z,1.00
2023-01-21T05:12:02.190Z,1.00
2023-01-21T05:14:33.567Z,1.00
2023-01-21T05:17:04.606Z,1.00
2023-01-21T05:19:35.924Z,1.00
2023-01-21T05:22:06.893Z,1.00
2023-01-21T05:24:40.833Z,1.00
2023-01-21T05:27:11.887Z,1.00
2023-01-21T05:29:43.874Z,1.00
2023-01-21T05:32:14.865Z,1.00
2023-01-21T05:34:46.184Z,1.00
2023-01-21T05:37:17.268Z,1.00
2023-01-21T05:39:51.243Z,1.00
2023-01-21T05:42:22.055Z,1.00
2023-01-21T05:44:53.295Z,1.00
2023-01-21T05:47:24.152Z,1.00
2023-01-21T05:49:55.567Z,1.00
2023-01-21T05:52:26.561Z,1.00
2023-01-21T05:55:02.538Z,1.10
2023-01-21T05:57:35.037Z,1.10
2023-01-21T06:00:06.814Z,1.10
2023-01-21T06:02:37.818Z,1.10
2023-01-21T06:05:11.122Z,1.10
2023-01-21T06:07:42.012Z,1.10
2023-01-21T06:10:16.456Z,1.10
2023-01-21T06:12:47.504Z,1.10
2023-01-21T06:15:18.918Z,1.10
2023-01-21T06:17:50.251Z,1.10
2023-01-21T06:20:21.781Z,1.10
2023-01-21T06:22:52.713Z,1.10
2023-01-21T06:25:26.739Z,1.10
2023-01-21T06:27:58.323Z,1.10
2023-01-21T06:30:29.763Z,1.20
2023-01-21T06:33:00.720Z,1.10
2023-01-21T06:35:32.540Z,1.10
2023-01-21T06:38:03.617Z,1.20
2023-01-21T06:40:37.519Z,1.10
2023-01-21T06:43:08.391Z,1.20
2023-01-21T06:45:40.197Z,1.20
2023-01-21T06:48:11.204Z,1.20
2023-01-21T06:50:42.533Z,1.30
2023-01-21T06:53:13.409Z,1.20
2023-01-21T06:55:48.290Z,1.30
2023-01-21T06:58:19.345Z,1.30
2023-01-21T07:00:51.184Z,1.30
2023-01-21T07:03:22.837Z,1.30
2023-01-21T07:05:57.917Z,1.30
2023-01-21T07:08:29.016Z,1.30
2023-01-21T07:11:04.646Z,1.40
2023-01-21T07:13:36.450Z,1.40
2023-01-21T07:16:10.958Z,1.40
2023-01-21T07:18:42.647Z,1.40
2023-01-21T07:21:14.289Z,1.40
2023-01-21T07:23:46.971Z,1.40
2023-01-21T07:26:21.843Z,1.40
2023-01-21T07:28:53.234Z,1.50
2023-01-21T07:31:24.824Z,1.50
2023-01-21T07:33:56.083Z,1.50
2023-01-21T07:36:28.708Z,1.50
2023-01-21T07:39:00.167Z,1.50
2023-01-21T07:41:34.193Z,1.50
2023-01-21T07:44:07.779Z,1.50
2023-01-21T07:46:39.615Z,1.50
2023-01-21T07:49:13.158Z,1.50
2023-01-21T07:51:44.407Z,1.60
2023-01-21T07:54:15.761Z,1.60
2023-01-21T07:56:50.006Z,1.60
2023-01-21T07:59:21.770Z,1.60
2023-01-21T08:01:54.794Z,1.60
2023-01-21T08:04:26.021Z,1.60
2023-01-21T08:06:59.181Z,1.70
2023-01-21T08:09:30.178Z,1.60
2023-01-21T08:12:04.106Z,1.70
2023-01-21T08:14:35.406Z,1.70
2023-01-21T08:17:07.455Z,1.70
2023-01-21T08:19:38.867Z,1.70
2023-01-21T08:22:10.769Z,1.70
2023-01-21T08:24:43.595Z,1.70
2023-01-21T08:27:17.864Z,1.70
2023-01-21T08:29:49.414Z,1.70
2023-01-21T08:32:22.596Z,1.70
2023-01-21T08:34:54.456Z,1.70
2023-01-21T08:37:26.041Z,1.80
2023-01-21T08:39:57.085Z,1.80
2023-01-21T08:42:31.128Z,1.80
2023-01-21T08:45:02.161Z,1.80
2023-01-21T08:47:37.221Z,1.80
2023-01-21T08:50:10.079Z,1.80
2023-01-21T08:52:41.326Z,1.80
2023-01-21T08:55:13.241Z,1.90
2023-01-21T08:57:47.109Z,1.80
2023-01-21T09:00:19.052Z,1.80
2023-01-21T09:02:51.889Z,1.90
2023-01-21T09:05:23.649Z,1.90
2023-01-21T09:07:58.087Z,1.90
2023-01-21T09:10:41.703Z,1.90
2023-01-21T09:13:20.211Z,1.90
2023-01-21T09:15:51.515Z,2.00
2023-01-21T09:18:22.928Z,2.00
2023-01-21T09:20:53.979Z,2.00
2023-01-21T09:23:28.629Z,2.00
2023-01-21T09:26:04.937Z,2.00
2023-01-21T09:28:42.549Z,2.00
2023-01-21T09:31:15.610Z,2.00
2023-01-21T09:33:49.059Z,2.00
2023-01-21T09:36:22.757Z,2.10
2023-01-21T09:38:55.016Z,2.10
2023-01-21T09:41:32.239Z,2.10
2023-01-21T09:44:16.624Z,2.00
2023-01-21T09:46:53.532Z,2.10
2023-01-21T09:49:30.689Z,2.10
2023-01-21T09:52:09.159Z,2.10
2023-01-21T09:54:42.492Z,2.10
2023-01-21T09:57:38.244Z,2.10
2023-01-21T10:00:27.819Z,2.10
2023-01-21T10:03:05.136Z,2.10
2023-01-21T10:06:02.365Z,2.10
2023-01-21T10:08:39.891Z,2.10
2023-01-21T10:11:23.619Z,2.10
2023-01-21T10:14:09.410Z,2.10
2023-01-21T10:16:50.025Z,2.10
2023-01-21T10:19:28.563Z,2.10
2023-01-21T10:22:05.123Z,2.10
2023-01-21T10:24:41.778Z,2.10
2023-01-21T10:27:18.570Z,2.10
2023-01-21T10:29:54.682Z,2.10
2023-01-21T10:32:31.264Z,2.10
2023-01-21T10:35:02.325Z,2.10
2023-01-21T10:37:39.609Z,2.10
2023-01-21T10:40:38.629Z,2.10
2023-01-21T10:43:14.778Z,2.20
2023-01-21T10:45:52.473Z,2.10
2023-01-21T10:48:35.569Z,2.10
2023-01-21T10:51:15.973Z,2.20
2023-01-21T10:53:51.230Z,2.20
2023-01-21T10:56:29.907Z,2.20
2023-01-21T10:59:05.345Z,2.20
2023-01-21T11:01:39.076Z,2.20
2023-01-21T11:04:17.621Z,2.20
2023-01-21T11:06:52.463Z,2.20
2023-01-21T11:09:24.852Z,2.20
2023-01-21T11:11:55.753Z,2.20
2023-01-21T11:14:28.945Z,2.20
2023-01-21T11:17:00.575Z,2.20
2023-01-21T11:19:35.432Z,2.20
2023-01-21T11:22:09.170Z,2.20
2023-01-21T11:24:47.286Z,2.20
2023-01-21T11:27:23.776Z,2.20
2023-01-21T11:29:55.374Z,2.20
2023-01-21T11:32:28.856Z,2.20
2023-01-21T11:35:06.359Z,2.20
2023-01-21T11:37:39.081Z,2.20
2023-01-21T11:40:20.620Z,2.20
2023-01-21T11:42:53.774Z,2.20
2023-01-21T11:45:32.160Z,2.20
2023-01-21T11:48:04.089Z,2.20
2023-01-21T11:50:39.043Z,2.20
2023-01-21T11:53:17.633Z,2.20
2023-01-21T11:55:51.355Z,2.20
2023-01-21T11:58:25.780Z,2.30
2023-01-21T12:00:59.433Z,2.30
2023-01-21T12:03:34.329Z,2.30
2023-01-21T12:06:10.702Z,2.30
2023-01-21T12:08:43.590Z,2.30
2023-01-21T12:11:21.035Z,2.30
2023-01-21T12:14:00.993Z,2.30
2023-01-21T12:16:36.465Z,2.30
2023-01-21T12:19:29.850Z,2.30
2023-01-21T12:22:33.596Z,2.30
2023-01-21T12:25:29.220Z,2.30
2023-01-21T12:28:14.371Z,2.30
2023-01-21T12:30:51.595Z,2.30
2023-01-21T12:33:27.005Z,2.30
2023-01-21T12:36:01.649Z,2.30
2023-01-21T12:38:38.950Z,2.30
2023-01-21T12:41:18.660Z,2.30
2023-01-21T12:43:53.275Z,2.30
2023-01-21T12:46:27.801Z,2.30
2023-01-21T12:49:05.565Z,2.30
2023-01-21T12:51:40.638Z,2.30
2023-01-21T12:54:21.011Z,2.30
2023-01-21T12:56:59.769Z,2.40
2023-01-21T12:59:36.307Z,2.40
2023-01-21T13:02:18.838Z,2.40
2023-01-21T13:04:59.615Z,2.30
2023-01-21T13:07:40.453Z,2.40
2023-01-21T13:10:20.168Z,2.40
2023-01-21T13:12:59.126Z,2.40
2023-01-21T13:15:33.988Z,2.40
2023-01-21T13:18:12.263Z,2.40
2023-01-21T13:20:48.764Z,2.40
2023-01-21T13:23:29.571Z,2.40
2023-01-21T13:26:05.303Z,2.40
2023-01-21T13:28:44.070Z,2.40
2023-01-21T13:31:22.257Z,2.40
2023-01-21T13:34:01.396Z,2.40
2023-01-21T13:36:47.482Z,2.40
2023-01-21T13:39:26.677Z,2.40
2023-01-21T13:42:11.463Z,2.50
2023-01-21T13:45:18.012Z,2.40
2023-01-21T13:48:23.123Z,2.40
2023-01-21T13:51:07.479Z,2.40
2023-01-21T13:54:10.965Z,2.40
2023-01-21T13:57:01.110Z,2.50
2023-01-21T13:59:40.099Z,2.40
2023-01-21T14:02:20.051Z,2.40
2023-01-21T14:04:56.551Z,2.50
2023-01-21T14:07:33.503Z,2.40
2023-01-21T14:10:10.020Z,2.40
2023-01-21T14:13:09.669Z,2.40
2023-01-21T14:15:54.913Z,2.40
2023-01-21T14:18:49.833Z,2.40
2023-01-21T14:21:45.892Z,2.40
2023-01-21T14:24:30.122Z,2.40
2023-01-21T14:27:15.423Z,2.40
2023-01-21T14:29:50.328Z,2.40
2023-01-21T14:32:27.213Z,2.40
2023-01-21T14:35:10.733Z,2.40
2023-01-21T14:37:47.179Z,2.40
2023-01-21T14:40:23.712Z,2.40
2023-01-21T14:42:56.311Z,2.40
2023-01-21T14:45:57.190Z,2.40
2023-01-21T14:48:33.781Z,2.40
2023-01-21T14:51:25.760Z,2.40
2023-01-21T14:54:03.328Z,2.50
2023-01-21T14:56:36.817Z,2.40
2023-01-21T14:59:11.212Z,2.40
2023-01-21T15:01:45.534Z,2.50
2023-01-21T15:04:28.456Z,2.40
2023-01-21T15:07:04.660Z,2.40
2023-01-21T15:09:40.579Z,2.40
2023-01-21T15:12:18.996Z,2.40
2023-01-21T15:14:50.737Z,2.40
2023-01-21T15:18:04.169Z,2.50
2023-01-21T15:20:50.026Z,2.40
2023-01-21T15:23:37.958Z,2.50
2023-01-21T15:26:35.353Z,2.40
2023-01-21T15:29:36.030Z,2.40
2023-01-21T15:32:31.034Z,2.40
2023-01-21T15:35:04.099Z,2.40
2023-01-21T15:37:40.190Z,2.40
2023-01-21T15:40:22.451Z,2.40
2023-01-21T15:43:01.729Z,2.50
2023-01-21T15:45:39.998Z,2.40
2023-01-21T15:48:40.905Z,2.40
2023-01-21T15:51:22.892Z,2.40
2023-01-21T15:54:12.524Z,2.40
2023-01-21T15:57:00.044Z,2.40
2023-01-21T15:59:51.320Z,2.40
2023-01-21T16:02:28.462Z,2.50
2023-01-21T16:05:18.244Z,2.40
2023-01-21T16:08:02.756Z,2.40
2023-01-21T16:10:42.549Z,2.40
2023-01-21T16:13:24.111Z,2.50
2023-01-21T16:16:09.645Z,2.50
2023-01-21T16:18:53.351Z,2.50
2023-01-21T16:21:27.700Z,2.50
2023-01-21T16:24:02.950Z,2.50
2023-01-21T16:26:35.035Z,2.50
2023-01-21T16:29:14.112Z,2.50
2023-01-21T16:31:52.377Z,2.50
2023-01-21T16:34:42.908Z,2.50
2023-01-21T16:37:14.735Z,2.50
2023-01-21T16:39:47.773Z,2.50
2023-01-21T16:42:36.901Z,2.50
2023-01-21T16:45:20.841Z,2.50
2023-01-21T16:47:59.785Z,2.50
2023-01-21T16:50:33.861Z,2.50
2023-01-21T16:53:30.622Z,2.50
2023-01-21T16:56:03.261Z,2.50
2023-01-21T16:58:37.554Z,2.50
2023-01-21T17:01:14.323Z,2.50
2023-01-21T17:03:47.479Z,2.50
2023-01-21T17:06:25.459Z,2.50
2023-01-21T17:09:05.319Z,2.50
2023-01-21T17:11:39.384Z,2.50
2023-01-21T17:14:12.632Z,2.50
2023-01-21T17:16:46.594Z,2.50
2023-01-21T17:19:24.602Z,2.50
2023-01-21T17:22:01.937Z,2.50
2023-01-21T17:24:44.292Z,2.50
2023-01-21T17:27:21.983Z,2.40
2023-01-21T17:29:53.755Z,2.50
2023-01-21T17:32:29.619Z,2.50
2023-01-21T17:35:15.578Z,2.40
2023-01-21T17:37:56.592Z,2.40
2023-01-21T17:40:34.801Z,2.50
2023-01-21T17:43:19.609Z,2.50
2023-01-21T17:45:53.153Z,2.50
2023-01-21T17:48:32.023Z,2.50
2023-01-21T17:51:15.816Z,2.50
2023-01-21T17:53:56.435Z,2.50
2023-01-21T17:56:46.485Z,2.50
2023-01-21T17:59:34.470Z,2.40
2023-01-21T18:02:07.797Z,2.40
2023-01-21T18:04:41.120Z,2.50
2023-01-21T18:07:27.073Z,2.50
2023-01-21T18:10:05.234Z,2.50
2023-01-21T18:12:39.608Z,2.50
2023-01-21T18:15:16.329Z,2.50
2023-01-21T18:17:50.580Z,2.50
2023-01-21T18:20:24.602Z,2.50
2023-01-21T18:22:57.867Z,2.50
2023-01-21T18:25:30.663Z,2.50
2023-01-21T18:28:07.136Z,2.50
2023-01-21T18:30:40.747Z,2.50
2023-01-21T18:33:14.184Z,2.50
2023-01-21T18:35:48.033Z,2.50
2023-01-21T18:38:27.709Z,2.50
2023-01-21T18:41:00.527Z,2.50
2023-01-21T18:43:35.050Z,2.50
2023-01-21T18:46:14.816Z,2.50
2023-01-21T18:48:46.345Z,2.50
2023-01-21T18:51:17.956Z,2.50
2023-01-21T18:53:49.379Z,2.50
2023-01-21T18:56:21.963Z,2.50
2023-01-21T18:58:56.275Z,2.50
2023-01-21T19:01:28.190Z,2.50
2023-01-21T19:04:04.485Z,2.50
2023-01-21T19:06:36.932Z,2.50
2023-01-21T19:09:16.972Z,2.50
2023-01-21T19:11:55.067Z,2.50
2023-01-21T19:14:28.953Z,2.50
2023-01-21T19:17:01.020Z,2.50
2023-01-21T19:19:32.495Z,2.50
2023-01-21T19:22:03.982Z,2.50
2023-01-21T19:24:35.563Z,2.50
2023-01-21T19:27:07.214Z,2.50
2023-01-21T19:29:40.860Z,2.50
2023-01-21T19:32:15.874Z,2.50
2023-01-21T19:34:47.546Z,2.50
2023-01-21T19:37:21.169Z,2.60
2023-01-21T19:39:52.360Z,2.50
2023-01-21T19:42:23.807Z,2.50
2023-01-21T19:44:59.518Z,2.60
2023-01-21T19:47:32.649Z,2.50
2023-01-21T19:50:05.977Z,2.50
2023-01-21T19:52:38.377Z,2.60
2023-01-21T19:55:10.437Z,2.60
2023-01-21T19:57:42.025Z,2.60
2023-01-21T20:00:26.427Z,2.60
2023-01-21T20:02:58.609Z,2.60
2023-01-21T20:05:33.908Z,2.60
2023-01-21T20:08:05.673Z,2.60
2023-01-21T20:10:36.563Z,2.60
2023-01-21T20:13:09.080Z,2.60
2023-01-21T20:15:43.605Z,2.60
2023-01-21T20:18:21.199Z,2.60
2023-01-21T20:20:52.613Z,2.50
2023-01-21T20:23:27.030Z,2.60
2023-01-21T20:26:01.184Z,2.60
2023-01-21T20:28:39.986Z,2.60
2023-01-21T20:31:14.796Z,2.60
2023-01-21T20:33:46.542Z,2.60
2023-01-21T20:36:22.202Z,2.60
2023-01-21T20:38:55.337Z,2.50
2023-01-21T20:41:26.555Z,2.60
2023-01-21T20:43:58.435Z,2.50
2023-01-21T20:46:33.498Z,2.50
2023-01-21T20:49:04.866Z,2.60
2023-01-21T20:51:35.915Z,2.60
2023-01-21T20:54:07.863Z,2.60
2023-01-21T20:56:38.802Z,2.60
2023-01-21T20:59:11.982Z,2.50
2023-01-21T21:01:47.473Z,2.60
2023-01-21T21:04:21.968Z,2.60
2023-01-21T21:06:53.407Z,2.60
2023-01-21T21:09:25.857Z,2.60
2023-01-21T21:11:57.076Z,2.60
2023-01-21T21:14:29.356Z,2.60
2023-01-21T21:17:03.335Z,2.60
2023-01-21T21:19:35.409Z,2.60
2023-01-21T21:22:07.205Z,2.60
2023-01-21T21:24:39.160Z,2.60
2023-01-21T21:27:14.251Z,2.60
2023-01-21T21:29:48.139Z,2.60
2023-01-21T21:32:21.923Z,2.60
2023-01-21T21:35:01.627Z,2.60
2023-01-21T21:37:33.729Z,2.50
2023-01-21T21:40:06.313Z,2.50
2023-01-21T21:42:50.293Z,2.60
2023-01-21T21:45:23.048Z,2.50
2023-01-21T21:48:10.488Z,2.60
2023-01-21T21:50:41.977Z,2.60
2023-01-21T21:53:14.081Z,2.50
2023-01-21T21:55:46.253Z,2.50
2023-01-21T21:58:17.510Z,2.50
2023-01-21T22:00:54.356Z,2.50
2023-01-21T22:03:29.450Z,2.60
2023-01-21T22:06:04.261Z,2.50
2023-01-21T22:08:36.680Z,2.50
2023-01-21T22:11:10.290Z,2.60
2023-01-21T22:13:44.092Z,2.60
2023-01-21T22:16:18.880Z,2.50
2023-01-21T22:18:53.474Z,2.50
2023-01-21T22:21:27.156Z,2.50
2023-01-21T22:23:58.932Z,2.60
2023-01-21T22:26:31.230Z,2.60
2023-01-21T22:29:03.168Z,2.60
2023-01-21T22:31:36.068Z,2.60
2023-01-21T22:34:10.460Z,2.60
2023-01-21T22:36:47.407Z,2.60
2023-01-21T22:39:21.079Z,2.60
2023-01-21T22:42:00.652Z,2.60
2023-01-21T22:44:37.669Z,2.60
2023-01-21T22:47:14.186Z,2.60
2023-01-21T22:49:50.433Z,2.60
2023-01-21T22:52:22.442Z,2.50
2023-01-21T22:54:53.683Z,2.60
2023-01-21T22:57:26.828Z,2.60
2023-01-21T22:59:58.127Z,2.50
2023-01-21T23:02:30.172Z,2.50
2023-01-21T23:05:04.348Z,2.60
2023-01-21T23:07:36.851Z,2.60
2023-01-21T23:10:08.857Z,2.60
2023-01-21T23:12:40.221Z,2.60
2023-01-21T23:15:13.042Z,2.60
2023-01-21T23:17:44.369Z,2.60
2023-01-21T23:20:18.658Z,2.60
2023-01-21T23:22:50.631Z,2.60
2023-01-21T23:25:21.730Z,2.60
2023-01-21T23:27:53.990Z,2.60
2023-01-21T23:30:25.070Z,2.60
2023-01-21T23:32:56.651Z,2.60
2023-01-21T23:35:31.116Z,2.60
2023-01-21T23:38:03.019Z,2.60
2023-01-21T23:40:34.138Z,2.60
2023-01-21T23:43:05.439Z,2.60
2023-01-21T23:45:36.377Z,2.60
2023-01-21T23:48:09.093Z,2.60
2023-01-21T23:50:42.744Z,2.60
2023-01-21T23:53:14.076Z,2.60
2023-01-21T23:55:45.822Z,2.60
2023-01-21T23:58:17.205Z,2.60
